Time;durP1;ratioP1;P1;durP2;ratioP2;P2;SDS_P1;SDS_P2;PMS_P1;PMS_P2;Temp;Humidity;BMP_temperature;BMP_pressure;BME280_temperature;BME280_humidity;BME280_pressure;Samples;Min_cycle;Max_cycle;Signal;HPM_P1;HPM_P2
2023/01/23 00:03:31;;;;;;;10.90;8.27;;;;;;;1.63;63.44;101435.84;10413565;28;20745;-64
2023/01/23 00:08:34;;;;;;;9.85;7.93;;;;;;;1.77;63.43;101427.25;10418580;28;20045;-64
2023/01/23 00:13:36;;;;;;;12.13;8.45;;;;;;;1.89;63.59;101429.81;10412184;28;20053;-64
2023/01/23 00:18:38;;;;;;;11.95;9.02;;;;;;;1.92;63.21;101435.00;10407329;28;20048;-64
2023/01/23 00:23:48;;;;;;;9.57;7.72;;;;;;;1.79;62.76;101428.09;10410926;28;20316;-64
2023/01/23 00:28:51;;;;;;;11.00;7.40;;;;;;;1.86;62.97;101424.69;10415490;28;20045;-65
2023/01/23 00:33:58;;;;;;;11.00;7.78;;;;;;;1.82;62.52;101427.25;10422818;28;20715;-65
2023/01/23 00:39:00;;;;;;;9.65;7.45;;;;;;;1.84;62.65;101434.13;10419974;28;20041;-65
2023/01/23 00:44:02;;;;;;;13.18;8.50;;;;;;;1.91;63.09;101428.09;10421000;28;20056;-65
2023/01/23 00:49:04;;;;;;;9.82;7.35;;;;;;;1.80;62.51;101426.41;10419520;28;20037;-64
2023/01/23 00:54:05;;;;;;;10.65;7.80;;;;;;;1.83;62.78;101436.69;10416336;28;20404;-64
2023/01/23 00:59:07;;;;;;;10.70;8.20;;;;;;;1.83;62.88;101442.72;10426184;28;20045;-65
2023/01/23 01:04:09;;;;;;;10.27;7.80;;;;;;;1.94;62.61;101443.59;10414039;28;20578;-65
2023/01/23 01:09:10;;;;;;;11.63;8.02;;;;;;;1.99;62.29;101441.84;10418649;28;20045;-65
2023/01/23 01:14:12;;;;;;;10.80;8.05;;;;;;;2.05;62.42;101449.59;10417671;28;20492;-65
2023/01/23 01:19:16;;;;;;;10.73;8.50;;;;;;;2.06;62.35;101460.78;10421873;28;20305;-64
2023/01/23 01:24:18;;;;;;;11.65;8.75;;;;;;;2.01;62.77;101462.50;10418150;28;20472;-64
2023/01/23 01:29:19;;;;;;;10.52;7.80;;;;;;;1.93;62.53;101453.91;10418476;28;20056;-65
2023/01/23 01:34:21;;;;;;;11.07;8.63;;;;;;;1.87;62.88;101459.91;10416696;28;20054;-65
2023/01/23 01:39:24;;;;;;;11.55;8.80;;;;;;;1.87;62.84;101459.91;10423691;28;20056;-65
2023/01/23 01:44:26;;;;;;;10.98;8.40;;;;;;;1.80;62.89;101463.38;10411112;28;20524;-64
2023/01/23 01:49:31;;;;;;;12.23;8.55;;;;;;;1.64;63.08;101466.81;10419087;28;20433;-65
2023/01/23 01:54:48;;;;;;;12.35;9.27;;;;;;;1.50;63.40;101471.09;10418754;28;20404;-64
2023/01/23 02:00:07;;;;;;;13.07;9.45;;;;;;;1.50;63.63;101481.41;10417866;28;20064;-65
2023/01/23 02:05:16;;;;;;;14.43;9.75;;;;;;;1.55;63.55;101477.09;10419357;28;20045;-64
2023/01/23 02:10:17;;;;;;;12.15;8.60;;;;;;;1.58;63.89;101474.53;10420994;28;20061;-64
2023/01/23 02:15:21;;;;;;;13.80;10.00;;;;;;;1.64;63.92;101484.84;10416714;28;20235;-64
2023/01/23 02:20:25;;;;;;;11.70;8.90;;;;;;;1.59;63.54;101486.56;10418217;28;20044;-65
2023/01/23 02:25:30;;;;;;;12.82;8.50;;;;;;;1.62;63.56;101484.00;10414722;28;20855;-65
2023/01/23 02:30:32;;;;;;;11.32;8.77;;;;;;;1.70;63.66;101484.00;10416829;28;20037;-65
2023/01/23 02:35:34;;;;;;;12.98;9.48;;;;;;;1.75;63.74;101495.16;10417937;28;20454;-65
2023/01/23 02:40:39;;;;;;;11.80;9.45;;;;;;;1.74;63.35;101488.28;10420037;28;20504;-64
2023/01/23 02:45:41;;;;;;;13.00;9.52;;;;;;;1.50;63.91;101490.84;10416360;28;20052;-64
2023/01/23 02:50:45;;;;;;;12.93;9.55;;;;;;;1.47;64.17;101499.44;10415158;28;20045;-65
2023/01/23 02:55:46;;;;;;;12.90;9.60;;;;;;;1.56;64.01;101506.31;10416564;28;20045;-65
2023/01/23 03:00:48;;;;;;;13.82;9.85;;;;;;;1.51;63.90;101514.03;10418485;28;20056;-64
2023/01/23 03:05:50;;;;;;;14.10;9.38;;;;;;;1.51;64.05;101515.75;10424385;28;20120;-64
2023/01/23 03:10:51;;;;;;;13.90;10.10;;;;;;;1.43;64.09;101517.44;10424239;28;20645;-64
2023/01/23 03:15:53;;;;;;;15.45;10.77;;;;;;;1.47;64.39;101511.44;10429908;28;20405;-65
2023/01/23 03:21:00;;;;;;;14.32;10.50;;;;;;;1.52;64.43;101514.91;10427455;28;20044;-64
2023/01/23 03:26:01;;;;;;;14.65;9.93;;;;;;;1.51;64.38;101520.91;10422688;28;20532;-64
2023/01/23 03:31:03;;;;;;;12.93;9.23;;;;;;;1.59;64.26;101514.03;10421178;28;20087;-64
2023/01/23 03:36:06;;;;;;;14.48;10.20;;;;;;;1.57;64.17;101513.19;10424166;28;20088;-65
2023/01/23 03:41:23;;;;;;;13.32;9.82;;;;;;;1.59;64.00;101514.91;10405180;28;20045;-64
2023/01/23 03:46:25;;;;;;;14.98;10.40;;;;;;;1.60;63.98;101524.38;10425838;28;20456;-64
2023/01/23 03:51:27;;;;;;;14.45;10.32;;;;;;;1.55;64.13;101523.50;10421378;28;20048;-64
2023/01/23 03:56:28;;;;;;;14.45;10.60;;;;;;;1.40;64.47;101525.19;10420188;28;20512;-64
2023/01/23 04:01:30;;;;;;;16.88;10.63;;;;;;;1.49;64.35;101532.94;10419547;28;20053;-64
2023/01/23 04:06:32;;;;;;;16.65;11.20;;;;;;;1.45;64.42;101534.66;10417570;28;20052;-64
2023/01/23 04:11:33;;;;;;;15.15;11.15;;;;;;;1.49;64.41;101531.22;10414742;28;20041;-65
2023/01/23 04:16:35;;;;;;;16.23;11.32;;;;;;;1.60;64.25;101524.38;10420131;28;20049;-64
2023/01/23 04:21:37;;;;;;;14.80;10.77;;;;;;;1.71;64.03;101529.53;10413655;28;20049;-64
2023/01/23 04:26:38;;;;;;;14.68;10.70;;;;;;;1.59;63.86;101527.81;10415109;28;20373;-65
2023/01/23 04:31:40;;;;;;;16.15;10.68;;;;;;;1.53;64.37;101534.66;10411600;28;20045;-65
2023/01/23 04:36:42;;;;;;;16.83;11.15;;;;;;;1.63;64.07;101538.97;10415275;28;20056;-64
2023/01/23 04:41:43;;;;;;;14.35;10.68;;;;;;;1.53;64.14;101532.09;10414562;28;20339;-64
2023/01/23 04:46:49;;;;;;;16.02;11.10;;;;;;;1.52;64.43;101535.53;10412027;28;20045;-64
2023/01/23 04:51:52;;;;;;;15.45;10.82;;;;;;;1.44;64.69;101539.81;10415134;28;20048;-64
2023/01/23 04:56:53;;;;;;;15.65;11.10;;;;;;;1.52;64.46;101530.38;10412073;28;20551;-64
2023/01/23 05:01:55;;;;;;;15.88;11.38;;;;;;;1.59;64.51;101526.94;10413934;28;20057;-65
2023/01/23 05:06:56;;;;;;;17.13;11.20;;;;;;;1.67;64.46;101527.81;10411505;28;20045;-64
2023/01/23 05:11:58;;;;;;;13.23;10.18;;;;;;;1.55;64.34;101526.09;10412809;28;20060;-65
2023/01/23 05:17:00;;;;;;;15.60;10.82;;;;;;;1.44;64.40;101514.03;10419822;28;20060;-64
2023/01/23 05:22:01;;;;;;;14.80;10.77;;;;;;;1.33;64.86;101525.19;10418919;28;20512;-64
2023/01/23 05:27:03;;;;;;;13.95;10.23;;;;;;;1.45;64.83;101518.31;10402544;28;20454;-64
2023/01/23 05:32:05;;;;;;;15.10;10.45;;;;;;;1.48;64.39;101520.91;10417720;28;20041;-64
2023/01/23 05:37:07;;;;;;;14.02;9.65;;;;;;;1.40;64.31;101520.88;10423670;28;20451;-64
2023/01/23 05:42:08;;;;;;;13.20;9.15;;;;;;;1.57;64.27;101529.53;10419640;28;20063;-64
2023/01/23 05:47:10;;;;;;;13.85;10.27;;;;;;;1.68;64.23;101538.16;10420386;28;20040;-64
2023/01/23 05:52:12;;;;;;;13.30;9.48;;;;;;;1.69;63.98;101547.59;10422607;28;20049;-64
2023/01/23 05:57:13;;;;;;;13.40;10.05;;;;;;;1.67;64.22;101557.03;10420645;28;20045;-64
2023/01/23 06:02:15;;;;;;;13.43;9.73;;;;;;;1.66;64.33;101557.06;10420467;28;20497;-64
2023/01/23 06:07:18;;;;;;;13.98;9.65;;;;;;;1.68;64.11;101558.78;10415535;28;20528;-64
2023/01/23 06:12:20;;;;;;;12.70;9.25;;;;;;;1.64;64.03;101567.38;10419415;28;20057;-64
2023/01/23 06:17:22;;;;;;;12.02;8.43;;;;;;;1.55;64.05;101574.19;10416961;28;20536;-65
2023/01/23 06:22:23;;;;;;;11.73;8.68;;;;;;;1.45;64.17;101583.63;10422132;28;20064;-64
2023/01/23 06:27:25;;;;;;;12.07;8.70;;;;;;;1.48;64.00;101591.41;10417527;28;20060;-64
2023/01/23 06:32:27;;;;;;;11.70;8.48;;;;;;;1.57;64.06;101593.13;10416990;28;20151;-65
2023/01/23 06:37:28;;;;;;;11.68;9.13;;;;;;;1.51;64.41;101595.69;10417538;28;20044;-64
2023/01/23 06:42:30;;;;;;;12.40;9.20;;;;;;;1.67;64.22;101603.47;10418029;28;20232;-64
2023/01/23 06:47:32;;;;;;;11.23;8.38;;;;;;;1.70;64.30;101605.19;10415740;28;20590;-64
2023/01/23 06:52:33;;;;;;;10.88;8.35;;;;;;;1.72;63.92;101606.06;10419678;28;20063;-65
2023/01/23 06:57:35;;;;;;;11.60;8.40;;;;;;;1.75;64.05;101617.25;10419091;28;20053;-64
2023/01/23 07:02:37;;;;;;;9.45;7.78;;;;;;;1.69;63.80;101613.78;10415405;28;20401;-64
2023/01/23 07:07:39;;;;;;;12.50;8.73;;;;;;;1.64;64.24;101613.78;10418139;28;20049;-64
2023/01/23 07:12:41;;;;;;;11.02;8.40;;;;;;;1.58;64.11;101621.50;10413921;28;20485;-65
2023/01/23 07:17:43;;;;;;;10.95;8.25;;;;;;;1.49;64.17;101624.03;10412831;28;20064;-64
2023/01/23 07:22:45;;;;;;;12.45;8.77;;;;;;;1.45;64.30;101637.78;10414875;28;20060;-65
2023/01/23 07:27:47;;;;;;;14.20;9.43;;;;;;;1.41;64.74;101642.91;10416880;28;20375;-64
2023/01/23 07:32:48;;;;;;;11.48;9.15;;;;;;;1.52;64.42;101646.41;10415267;28;20132;-65
2023/01/23 07:37:50;;;;;;;10.45;7.55;;;;;;;1.50;64.05;101651.56;10415338;28;20513;-64
2023/01/23 07:42:52;;;;;;;10.70;7.97;;;;;;;1.48;64.60;101652.41;10415933;28;20045;-64
2023/01/23 07:47:53;;;;;;;11.52;8.23;;;;;;;1.46;64.11;101652.41;10412636;28;20588;-65
2023/01/23 07:52:55;;;;;;;11.32;8.35;;;;;;;1.48;64.28;101657.56;10416987;28;20053;-64
2023/01/23 07:57:57;;;;;;;12.23;9.00;;;;;;;1.38;64.16;101653.22;10407921;28;20056;-64
2023/01/23 08:02:59;;;;;;;10.80;8.18;;;;;;;1.24;64.16;101658.28;10413360;28;20053;-64
2023/01/23 08:08:00;;;;;;;10.90;8.48;;;;;;;1.22;64.40;101657.41;10414629;28;20048;-65
2023/01/23 08:13:14;;;;;;;12.18;8.32;;;;;;;1.29;64.25;101664.31;10423695;28;20401;-64
2023/01/23 08:18:15;;;;;;;12.02;8.63;;;;;;;1.44;64.23;101673.84;10413988;28;20071;-65
2023/01/23 08:23:17;;;;;;;12.13;8.90;;;;;;;1.76;63.81;101680.00;10418739;28;20049;-65
2023/01/23 08:28:19;;;;;;;11.23;8.63;;;;;;;1.86;63.25;101686.94;10409460;28;20049;-65
2023/01/23 08:33:21;;;;;;;11.18;8.20;;;;;;;2.04;63.24;101681.81;10412285;28;20052;-65
2023/01/23 08:38:24;;;;;;;12.05;8.45;;;;;;;2.15;62.93;101683.56;10417565;28;20045;-65
2023/01/23 08:43:25;;;;;;;10.73;8.32;;;;;;;2.12;62.70;101704.22;10417166;28;20040;-65
2023/01/23 08:48:27;;;;;;;11.05;8.88;;;;;;;2.24;62.45;101703.38;10418995;28;20454;-65
2023/01/23 08:53:30;;;;;;;9.85;7.53;;;;;;;2.15;62.41;101711.13;10420238;28;20048;-65
2023/01/23 08:58:31;;;;;;;11.02;8.63;;;;;;;2.13;62.72;101705.94;10415121;28;20054;-65
2023/01/23 09:03:33;;;;;;;9.93;7.75;;;;;;;2.15;62.39;101706.78;10420928;28;20041;-65
2023/01/23 09:08:35;;;;;;;11.77;7.93;;;;;;;2.08;62.10;101715.41;10398808;28;20083;-65
2023/01/23 09:13:37;;;;;;;10.63;8.20;;;;;;;1.95;62.81;101715.34;10420414;28;20072;-65
2023/01/23 09:18:39;;;;;;;10.13;7.75;;;;;;;2.18;62.44;101724.00;10414099;28;20056;-65
2023/01/23 09:23:41;;;;;;;10.95;8.40;;;;;;;2.08;62.27;101730.00;10412754;28;20045;-65
2023/01/23 09:28:42;;;;;;;11.20;7.85;;;;;;;2.16;62.26;101726.59;10405659;28;20045;-65
2023/01/23 09:33:44;;;;;;;10.65;8.43;;;;;;;2.15;61.87;101734.34;10417930;28;20055;-65
2023/01/23 09:38:47;;;;;;;10.50;7.43;;;;;;;2.15;61.54;101730.03;10415216;28;20271;-65
2023/01/23 09:43:56;;;;;;;9.93;7.78;;;;;;;2.02;61.50;101738.59;10415285;28;20485;-65
2023/01/23 09:49:07;;;;;;;8.48;6.72;;;;;;;2.08;61.01;101735.16;10411335;28;20482;-64
2023/01/23 09:54:33;;;;;;;9.02;6.75;;;;;;;2.05;60.39;101732.59;10423514;28;20045;-65
2023/01/23 09:59:37;;;;;;;8.68;6.93;;;;;;;2.18;60.85;101731.75;10411699;28;20053;-65
2023/01/23 10:04:52;;;;;;;9.35;6.85;;;;;;;2.05;60.57;101735.19;10417639;28;20041;-65
2023/01/23 10:10:36;;;;;;;8.82;6.75;;;;;;;2.02;60.41;101730.84;10411101;28;20405;-65
2023/01/23 10:15:59;;;;;;;8.73;6.35;;;;;;;1.89;59.61;101730.81;10419399;28;20063;-65
2023/01/23 10:21:13;;;;;;;10.05;7.22;;;;;;;2.15;59.75;101730.03;10414702;28;20052;-65
2023/01/23 10:26:22;;;;;;;11.40;8.05;;;;;;;2.17;60.33;101730.06;10419925;28;20045;-65
2023/01/23 10:31:42;;;;;;;11.23;8.30;;;;;;;2.18;60.12;101724.88;10412446;28;20489;-65
2023/01/23 10:36:59;;;;;;;11.13;8.32;;;;;;;2.12;59.90;101730.03;10416239;28;20123;-65
2023/01/23 10:42:00;;;;;;;12.48;9.10;;;;;;;2.40;60.36;101723.19;10413274;28;21247;-64
2023/01/23 10:47:36;;;;;;;10.65;7.95;;;;;;;2.29;60.10;101712.00;10411211;28;20283;-64
2023/01/23 10:52:44;;;;;;;10.27;7.57;;;;;;;2.19;60.15;101724.00;10407599;28;20052;-64
2023/01/23 10:57:51;;;;;;;13.00;9.35;;;;;;;2.38;59.87;101724.09;10408075;28;20061;-65
2023/01/23 11:02:53;;;;;;;13.02;10.20;;;;;;;2.49;59.64;101717.19;10409225;28;20061;-65
2023/01/23 11:07:55;;;;;;;14.70;10.20;;;;;;;2.37;59.77;101718.06;10412076;28;20128;-64
2023/01/23 11:12:57;;;;;;;11.05;8.73;;;;;;;2.43;59.57;101712.03;10408232;28;20465;-65
2023/01/23 11:18:01;;;;;;;12.65;9.65;;;;;;;2.64;58.77;101705.16;10408210;28;20420;-65
2023/01/23 11:23:11;;;;;;;13.02;9.75;;;;;;;2.64;58.93;101704.31;10412862;28;20131;-65
2023/01/23 11:28:29;;;;;;;12.60;8.93;;;;;;;2.67;58.53;101700.00;10412895;28;20052;-65
2023/01/23 11:33:53;;;;;;;12.48;9.43;;;;;;;2.61;58.60;101700.00;10411752;28;20053;-64
2023/01/23 11:39:12;;;;;;;12.88;9.88;;;;;;;2.88;57.52;101700.00;10411143;28;20311;-65
2023/01/23 11:44:25;;;;;;;13.07;9.90;;;;;;;2.95;58.37;101693.97;10413516;28;20040;-65
2023/01/23 11:50:10;;;;;;;16.92;9.77;;;;;;;3.02;57.47;101687.06;10409230;28;20079;-65
2023/01/23 11:55:53;;;;;;;12.65;9.10;;;;;;;3.15;56.51;101683.63;10383793;28;20140;-65
2023/01/23 12:01:12;;;;;;;13.05;9.75;;;;;;;3.27;56.80;101686.19;10395384;28;20059;-65
2023/01/23 12:06:32;;;;;;;12.40;9.35;;;;;;;2.94;57.91;101689.69;10421489;28;20045;-65
2023/01/23 12:11:54;;;;;;;14.75;10.38;;;;;;;3.10;57.87;101681.88;10409066;28;20041;-64
2023/01/23 12:17:13;;;;;;;12.02;9.43;;;;;;;3.29;57.67;101675.81;10419259;28;20052;-65
2023/01/23 12:22:40;;;;;;;13.30;9.45;;;;;;;3.38;57.20;101675.78;10418703;28;20103;-65
2023/01/23 12:27:44;;;;;;;12.15;9.20;;;;;;;3.17;57.65;101674.13;10430951;28;20041;-66
2023/01/23 12:33:05;;;;;;;14.05;8.68;;;;;;;3.44;57.56;101668.88;10428815;28;20048;-65
2023/01/23 12:38:07;;;;;;;;;;;;;;;2.98;56.84;101659.50;10425316;28;20467;-65
2023/01/23 12:43:15;;;;;;;15.85;8.52;;;;;;;3.14;57.80;101657.75;10429056;28;19925;-65
2023/01/23 12:48:29;;;;;;;12.32;9.10;;;;;;;3.09;57.87;101647.41;10418336;28;20060;-65
2023/01/23 12:53:36;;;;;;;11.98;9.02;;;;;;;3.41;57.52;101643.03;10422223;28;20041;-65
2023/01/23 12:58:46;;;;;;;12.30;9.40;;;;;;;3.53;57.03;101643.00;10419211;28;21756;-65
2023/01/23 13:03:57;;;;;;;12.33;8.80;;;;;;;3.61;57.34;101637.78;10425023;28;20717;-65
2023/01/23 13:09:12;;;;;;;13.68;9.82;;;;;;;3.96;57.27;101635.91;10411047;28;20056;-65
2023/01/23 13:14:24;;;;;;;12.20;9.45;;;;;;;4.08;56.92;101648.78;10421595;28;20076;-65
2023/01/23 13:25:12;;;;;;;14.02;9.27;;;;;;;3.69;56.54;101647.25;10420754;28;20053;-65
2023/01/23 13:30:23;;;;;;;13.68;9.50;;;;;;;3.82;56.08;101656.63;10414525;28;20049;-65
2023/01/23 13:35:43;;;;;;;14.20;8.90;;;;;;;3.72;56.16;101661.91;10419700;28;20044;-65
2023/01/23 13:41:13;;;;;;;12.77;9.70;;;;;;;3.89;56.53;101657.50;10413214;28;20055;-65
2023/01/23 13:46:30;;;;;;;15.07;9.73;;;;;;;3.36;56.69;101651.66;10409580;28;20178;-65
2023/01/23 13:51:31;;;;;;;11.15;8.60;;;;;;;3.18;57.86;101656.88;10412811;28;20222;-65
2023/01/23 13:56:48;;;;;;;11.65;8.60;;;;;;;3.49;57.47;101646.47;10251059;28;20147;-65
2023/01/23 14:07:59;;;;;;;11.82;8.23;;;;;;;3.44;57.11;101670.59;10126356;29;20429;-65
2023/01/23 14:13:18;;;;;;;13.57;8.88;;;;;;;3.27;57.49;101677.56;9975576;29;20407;-65
2023/01/23 14:18:41;;;;;;;11.05;8.27;;;;;;;3.04;57.91;101669.84;9883091;29;20058;-65
2023/01/23 14:24:00;;;;;;;13.18;9.10;;;;;;;3.17;57.85;101676.72;9789815;29;20151;-65
2023/01/23 14:29:16;;;;;;;12.65;8.48;;;;;;;3.07;58.02;101663.81;9978274;29;20693;-65
2023/01/23 14:34:21;;;;;;;12.13;8.65;;;;;;;3.07;58.46;101668.97;10053973;29;20047;-65
2023/01/23 14:39:27;;;;;;;13.13;8.55;;;;;;;3.09;58.18;101662.09;10166333;28;20074;-65
2023/01/23 14:44:39;;;;;;;14.02;8.98;;;;;;;2.94;58.41;101662.97;10253480;28;20321;-65
2023/01/23 14:49:42;;;;;;;13.00;8.73;;;;;;;2.77;58.60;101680.19;10411008;28;20068;-65
2023/01/23 14:54:44;;;;;;;14.15;8.98;;;;;;;2.81;58.65;101672.44;10417622;28;20150;-65
2023/01/23 14:59:57;;;;;;;12.67;8.70;;;;;;;2.74;58.71;101669.88;10405183;28;20091;-65
2023/01/23 15:05:19;;;;;;;12.90;8.65;;;;;;;2.75;58.66;101671.56;10417230;28;20049;-65
2023/01/23 15:10:23;;;;;;;13.48;8.73;;;;;;;2.88;58.80;101671.59;10410117;28;20048;-65
2023/01/23 15:15:26;;;;;;;13.32;9.65;;;;;;;3.02;58.39;101676.75;10407917;28;20469;-65
2023/01/23 15:20:40;;;;;;;14.55;9.23;;;;;;;2.98;58.65;101673.31;10404742;28;20041;-65
2023/01/23 15:25:42;;;;;;;12.50;9.23;;;;;;;2.87;58.60;101679.31;10411680;28;20053;-65
2023/01/23 15:30:47;;;;;;;12.20;8.88;;;;;;;2.86;58.84;101673.31;10410664;28;20055;-65
2023/01/23 15:35:49;;;;;;;12.65;8.70;;;;;;;2.58;59.18;101666.41;10415014;28;20136;-65
2023/01/23 15:40:50;;;;;;;14.60;8.35;;;;;;;2.48;59.52;101649.19;10410865;28;20473;-65
2023/01/23 15:45:52;;;;;;;12.05;8.65;;;;;;;2.54;59.39;101669.84;10415596;28;20485;-65
2023/01/23 15:50:54;;;;;;;12.07;8.90;;;;;;;2.50;59.50;101664.72;10408744;28;20068;-65
2023/01/23 15:55:56;;;;;;;11.60;8.73;;;;;;;2.47;59.54;101667.28;10414785;28;20513;-65
2023/01/23 16:00:58;;;;;;;10.80;8.18;;;;;;;2.36;59.65;101676.75;10405376;28;20099;-65
2023/01/23 16:05:59;;;;;;;10.73;8.20;;;;;;;2.26;59.85;101672.41;10408656;28;21281;-65
2023/01/23 16:11:01;;;;;;;11.38;8.45;;;;;;;2.33;59.70;101680.19;10406883;28;20041;-65
2023/01/23 16:16:03;;;;;;;11.07;7.82;;;;;;;2.23;59.58;101679.28;10411585;28;20071;-65
2023/01/23 16:21:05;;;;;;;11.38;8.48;;;;;;;2.31;59.67;101688.78;10402445;28;20328;-65
2023/01/23 16:26:17;;;;;;;11.15;8.05;;;;;;;2.28;59.43;101694.78;10415209;28;20052;-65
2023/01/23 16:31:19;;;;;;;10.05;7.60;;;;;;;2.12;59.61;101691.31;10407754;28;20060;-65
2023/01/23 16:36:21;;;;;;;12.18;7.25;;;;;;;2.09;59.65;101693.03;10410266;28;20583;-65
2023/01/23 16:41:23;;;;;;;10.25;7.00;;;;;;;2.12;59.35;101695.59;10409343;28;20133;-65
2023/01/23 16:46:24;;;;;;;10.35;6.90;;;;;;;2.07;59.30;101715.41;10420944;28;20315;-65
2023/01/23 16:51:26;;;;;;;10.05;7.18;;;;;;;2.21;59.31;101708.56;10402055;28;20048;-65
2023/01/23 16:56:34;;;;;;;8.80;6.30;;;;;;;2.29;58.99;101705.97;10412918;28;20052;-65
2023/01/23 17:01:40;;;;;;;9.27;6.57;;;;;;;2.29;59.15;101708.56;10407333;28;20602;-66
2023/01/23 17:06:43;;;;;;;10.18;7.03;;;;;;;2.27;59.01;101703.41;10413545;28;20071;-65
2023/01/23 17:11:52;;;;;;;9.88;7.15;;;;;;;2.12;59.19;101705.94;10410256;28;20444;-65
2023/01/23 17:16:59;;;;;;;10.27;7.60;;;;;;;2.27;59.32;101705.97;10422861;28;20040;-65
2023/01/23 17:22:04;;;;;;;10.45;7.55;;;;;;;2.30;58.99;101694.81;10413391;28;20049;-65
2023/01/23 17:27:06;;;;;;;9.02;6.95;;;;;;;2.33;59.18;101699.97;10419793;28;20401;-65
2023/01/23 17:32:21;;;;;;;10.80;7.20;;;;;;;2.21;58.73;101700.81;10420898;28;20735;-65
2023/01/23 17:37:23;;;;;;;9.75;7.13;;;;;;;2.29;59.35;101701.69;10412243;28;20215;-65
2023/01/23 17:42:25;;;;;;;10.23;7.18;;;;;;;2.54;58.81;101706.00;10427379;28;20049;-65
2023/01/23 17:47:27;;;;;;;9.70;7.50;;;;;;;2.51;58.91;101699.97;10424606;28;20049;-65
2023/01/23 17:52:30;;;;;;;10.48;7.85;;;;;;;2.51;58.92;101687.94;10428272;28;20053;-66
2023/01/23 17:57:32;;;;;;;12.63;9.07;;;;;;;2.63;58.89;101690.53;10425419;28;20056;-66
2023/01/23 18:02:33;;;;;;;10.43;7.30;;;;;;;2.50;59.02;101670.72;10421961;28;20395;-65
2023/01/23 18:07:37;;;;;;;11.75;8.50;;;;;;;2.51;59.47;101680.19;10414716;28;20052;-66
2023/01/23 18:13:21;;;;;;;12.10;8.82;;;;;;;2.52;59.51;101692.22;10415542;28;20130;-66
2023/01/23 18:18:34;;;;;;;12.05;8.48;;;;;;;2.38;59.06;101670.69;10422233;28;20087;-66
2023/01/23 18:23:36;;;;;;;12.43;7.90;;;;;;;2.37;59.82;101675.88;10421965;28;20132;-65
2023/01/23 18:28:53;;;;;;;11.48;8.35;;;;;;;2.42;59.88;101677.59;10426207;28;20053;-65
2023/01/23 18:34:11;;;;;;;10.93;7.85;;;;;;;2.43;59.54;101671.59;10424496;28;20045;-66
2023/01/23 18:39:12;;;;;;;11.23;7.65;;;;;;;2.21;60.11;101683.56;10412346;28;20045;-66
2023/01/23 18:44:24;;;;;;;9.85;7.60;;;;;;;2.40;59.88;101699.13;10422814;28;20787;-65
2023/01/23 18:49:26;;;;;;;11.90;9.05;;;;;;;2.45;59.98;101687.94;10422747;28;20215;-65
2023/01/23 18:54:48;;;;;;;12.27;8.50;;;;;;;2.59;59.76;101691.38;10422405;28;20053;-65
2023/01/23 19:00:01;;;;;;;11.60;8.32;;;;;;;2.52;60.15;101696.56;10417855;28;20064;-66
2023/01/23 19:05:28;;;;;;;10.93;8.55;;;;;;;2.45;60.25;101700.84;10412759;28;20053;-65
2023/01/23 19:10:40;;;;;;;10.77;8.13;;;;;;;2.54;60.16;101710.34;10416731;28;20099;-66
2023/01/23 19:16:17;;;;;;;13.25;9.18;;;;;;;2.60;59.84;101712.91;10415915;28;20647;-65
2023/01/23 19:21:25;;;;;;;13.30;9.75;;;;;;;2.63;59.99;101720.66;10413059;28;20053;-66
2023/01/23 19:26:33;;;;;;;14.05;10.35;;;;;;;2.76;60.15;101723.28;10415664;28;20060;-65
2023/01/23 19:31:36;;;;;;;11.65;8.90;;;;;;;2.67;60.01;101723.25;10411057;28;20037;-65
2023/01/23 19:36:38;;;;;;;14.07;10.35;;;;;;;2.58;60.58;101719.81;10411430;28;20532;-65
2023/01/23 19:41:47;;;;;;;11.48;8.57;;;;;;;2.56;60.40;101717.19;10413492;28;20047;-65
2023/01/23 19:46:50;;;;;;;12.18;9.82;;;;;;;2.72;60.20;101721.56;10415563;28;20045;-65
2023/01/23 19:51:54;;;;;;;12.82;9.35;;;;;;;2.66;60.24;101720.69;10414477;28;20055;-65
2023/01/23 19:56:57;;;;;;;15.50;10.55;;;;;;;2.68;60.35;101724.97;10414631;28;20049;-66
2023/01/23 20:01:59;;;;;;;12.27;9.65;;;;;;;2.75;60.08;101733.59;10412755;28;20059;-65
2023/01/23 20:07:01;;;;;;;10.95;8.70;;;;;;;2.48;60.56;101728.41;10418788;28;20048;-65
2023/01/23 20:12:03;;;;;;;10.75;8.27;;;;;;;2.61;60.52;101737.88;10414095;28;20151;-65
2023/01/23 20:17:05;;;;;;;11.82;9.07;;;;;;;2.52;60.63;101741.31;10412837;28;20053;-65
2023/01/23 20:22:07;;;;;;;11.70;9.48;;;;;;;2.57;60.59;101736.16;10411520;28;20244;-65
2023/01/23 20:27:09;;;;;;;12.40;9.80;;;;;;;2.61;60.65;101730.13;10414078;28;20060;-65
2023/01/23 20:32:10;;;;;;;13.10;10.30;;;;;;;2.63;60.67;101718.06;10414697;28;20037;-65
2023/01/23 20:37:12;;;;;;;11.60;9.05;;;;;;;2.52;60.63;101723.22;10408076;28;20064;-65
2023/01/23 20:42:14;;;;;;;11.32;8.45;;;;;;;2.28;61.14;101720.59;10408338;28;20041;-65
2023/01/23 20:47:15;;;;;;;10.55;8.07;;;;;;;2.32;60.99;101718.91;10423095;28;20060;-65
2023/01/23 21:02:58;;;;;;;11.80;7.82;;;;;;;2.19;61.56;101720.59;10429282;28;20061;-66
2023/01/23 21:08:00;;;;;;;11.93;8.30;;;;;;;2.35;61.16;101717.19;10432941;28;20052;-66
2023/01/23 21:13:03;;;;;;;12.25;8.85;;;;;;;2.49;60.95;101723.22;10429684;28;20051;-65
2023/01/23 21:18:04;;;;;;;11.57;7.63;;;;;;;2.41;61.04;101727.53;10436102;28;20055;-66
2023/01/23 21:23:06;;;;;;;10.40;8.23;;;;;;;2.31;61.29;101723.19;10421385;28;20049;-66
2023/01/23 21:28:07;;;;;;;11.32;8.38;;;;;;;2.05;61.73;101717.94;10420856;28;20041;-66
2023/01/23 21:33:09;;;;;;;12.98;9.60;;;;;;;2.14;61.37;101719.69;10421477;28;20049;-65
2023/01/23 21:38:11;;;;;;;11.52;9.35;;;;;;;2.35;61.18;101719.78;10419884;28;20155;-66
2023/01/23 21:43:12;;;;;;;12.73;9.43;;;;;;;2.36;61.14;101730.97;10425586;28;20053;-65
2023/01/23 21:48:14;;;;;;;14.13;9.80;;;;;;;2.40;61.29;101730.94;10419781;28;20056;-65
2023/01/23 21:53:15;;;;;;;13.90;8.95;;;;;;;2.21;61.67;101745.53;10414973;28;20045;-66
2023/01/23 21:58:17;;;;;;;13.25;8.95;;;;;;;2.37;61.42;101746.44;10416608;28;20083;-65
2023/01/23 22:03:19;;;;;;;15.00;9.75;;;;;;;2.59;61.11;101745.63;10417078;28;21655;-65
2023/01/23 22:08:20;;;;;;;13.10;10.07;;;;;;;2.53;61.16;101748.22;10418666;28;20053;-65
2023/01/23 22:13:22;;;;;;;15.73;10.60;;;;;;;2.66;60.99;101744.75;10419007;28;20520;-65
2023/01/23 22:18:24;;;;;;;12.75;9.25;;;;;;;2.66;60.59;101747.34;10415177;28;20048;-65
2023/01/23 22:23:27;;;;;;;13.25;9.63;;;;;;;2.56;60.68;101748.19;10416681;28;20751;-65
2023/01/23 22:28:28;;;;;;;12.18;9.27;;;;;;;2.57;60.62;101756.81;10415415;28;20045;-65
2023/01/23 22:33:30;;;;;;;11.50;8.38;;;;;;;2.44;60.71;101761.09;10419330;28;20045;-65
2023/01/23 22:38:41;;;;;;;13.00;9.15;;;;;;;2.53;60.60;101762.81;10416724;28;20040;-65
2023/01/23 22:43:42;;;;;;;10.70;7.95;;;;;;;2.48;60.63;101759.41;10413224;28;20405;-66
2023/01/23 22:48:44;;;;;;;10.88;8.00;;;;;;;2.39;60.59;101752.47;10416260;28;20057;-66
2023/01/23 22:53:47;;;;;;;9.70;7.30;;;;;;;2.33;60.66;101760.22;10411035;28;20044;-65
2023/01/23 22:58:50;;;;;;;9.02;6.93;;;;;;;2.28;60.42;101746.41;10413929;28;20056;-65
2023/01/23 23:03:52;;;;;;;9.90;7.80;;;;;;;2.38;60.43;101734.41;10412524;28;21069;-65
2023/01/23 23:08:54;;;;;;;9.95;7.10;;;;;;;2.34;60.47;101732.69;10414491;28;20045;-66
2023/01/23 23:13:56;;;;;;;10.63;7.15;;;;;;;2.27;60.41;101730.94;10413286;28;20048;-65
2023/01/23 23:19:00;;;;;;;9.65;7.20;;;;;;;2.31;60.47;101748.16;10414198;28;20056;-65
2023/01/23 23:24:07;;;;;;;10.32;7.88;;;;;;;2.36;60.24;101747.28;10415098;28;20052;-64
2023/01/23 23:29:09;;;;;;;9.73;7.38;;;;;;;2.26;60.63;101749.84;10413019;28;20048;-65
2023/01/23 23:34:10;;;;;;;11.35;7.90;;;;;;;2.40;60.24;101748.19;10414103;28;20045;-65
2023/01/23 23:39:12;;;;;;;12.80;7.55;;;;;;;2.46;60.26;101746.44;10416823;28;20052;-65
2023/01/23 23:44:14;;;;;;;12.02;8.10;;;;;;;2.49;60.31;101749.06;10413195;28;20052;-66
2023/01/23 23:49:16;;;;;;;9.77;6.68;;;;;;;2.34;60.46;101753.34;10410241;28;20069;-65